sensor_id;sensor_type;location;lat;lon;timestamp;temperature;humidity
75786;DHT22;64402;44.708;37.644;2024-03-23T00:53:10;7.08;83.43
75786;DHT22;64402;44.708;37.644;2024-03-23T00:55:36;7.10;83.64
75786;DHT22;64402;44.708;37.644;2024-03-23T00:58:03;7.13;83.46
75786;DHT22;64402;44.708;37.644;2024-03-23T01:00:29;7.16;83.52
75786;DHT22;64402;44.708;37.644;2024-03-23T01:02:55;7.16;83.38
75786;DHT22;64402;44.708;37.644;2024-03-23T01:05:21;7.16;83.38
75786;DHT22;64402;44.708;37.644;2024-03-23T01:07:48;7.15;83.52
75786;DHT22;64402;44.708;37.644;2024-03-23T01:10:14;7.13;83.38
75786;DHT22;64402;44.708;37.644;2024-03-23T01:12:41;7.14;83.32
75786;DHT22;64402;44.708;37.644;2024-03-23T01:15:07;7.13;82.71
75786;DHT22;64402;44.708;37.644;2024-03-23T01:17:33;7.14;82.34
75786;DHT22;64402;44.708;37.644;2024-03-23T01:19:59;7.14;82.33
75786;DHT22;64402;44.708;37.644;2024-03-23T01:22:26;7.13;82.25
75786;DHT22;64402;44.708;37.644;2024-03-23T01:24:52;7.16;82.08
75786;DHT22;64402;44.708;37.644;2024-03-23T01:27:18;7.15;82.18
75786;DHT22;64402;44.708;37.644;2024-03-23T01:29:44;7.11;82.01
75786;DHT22;64402;44.708;37.644;2024-03-23T01:32:11;7.09;82.19
75786;DHT22;64402;44.708;37.644;2024-03-23T01:34:37;7.07;82.23
75786;DHT22;64402;44.708;37.644;2024-03-23T01:37:03;7.07;82.25
75786;DHT22;64402;44.708;37.644;2024-03-23T01:39:30;7.04;82.20
75786;DHT22;64402;44.708;37.644;2024-03-23T01:41:56;7.00;82.29
75786;DHT22;64402;44.708;37.644;2024-03-23T01:44:22;6.96;82.17
75786;DHT22;64402;44.708;37.644;2024-03-23T01:46:49;6.94;82.43
75786;DHT22;64402;44.708;37.644;2024-03-23T01:49:15;6.93;82.52
75786;DHT22;64402;44.708;37.644;2024-03-23T01:51:42;6.96;82.55
75786;DHT22;64402;44.708;37.644;2024-03-23T01:54:09;6.95;82.46
75786;DHT22;64402;44.708;37.644;2024-03-23T01:56:36;6.91;82.93
75786;DHT22;64402;44.708;37.644;2024-03-23T01:59:03;6.89;82.94
75786;DHT22;64402;44.708;37.644;2024-03-23T02:01:29;6.88;82.59
75786;DHT22;64402;44.708;37.644;2024-03-23T02:03:56;6.89;82.84
75786;DHT22;64402;44.708;37.644;2024-03-23T02:06:24;6.88;82.87
75786;DHT22;64402;44.708;37.644;2024-03-23T02:08:50;6.93;83.04
75786;DHT22;64402;44.708;37.644;2024-03-23T02:11:17;6.94;82.81
75786;DHT22;64402;44.708;37.644;2024-03-23T02:13:43;6.97;82.95
75786;DHT22;64402;44.708;37.644;2024-03-23T02:16:09;7.00;82.99
75786;DHT22;64402;44.708;37.644;2024-03-23T02:18:36;6.99;83.11
75786;DHT22;64402;44.708;37.644;2024-03-23T02:21:02;7.03;82.94
75786;DHT22;64402;44.708;37.644;2024-03-23T02:23:29;7.05;83.09
75786;DHT22;64402;44.708;37.644;2024-03-23T02:25:55;7.07;82.91
75786;DHT22;64402;44.708;37.644;2024-03-23T02:28:21;7.05;83.01
75786;DHT22;64402;44.708;37.644;2024-03-23T02:30:52;7.02;83.27
75786;DHT22;64402;44.708;37.644;2024-03-23T02:33:18;7.04;83.26
75786;DHT22;64402;44.708;37.644;2024-03-23T02:35:45;7.08;83.07
75786;DHT22;64402;44.708;37.644;2024-03-23T02:38:11;7.09;82.89
75786;DHT22;64402;44.708;37.644;2024-03-23T02:40:37;7.08;82.81
75786;DHT22;64402;44.708;37.644;2024-03-23T02:43:04;7.11;82.71
75786;DHT22;64402;44.708;37.644;2024-03-23T02:45:30;7.11;82.97
75786;DHT22;64402;44.708;37.644;2024-03-23T02:47:57;7.11;82.83
75786;DHT22;64402;44.708;37.644;2024-03-23T02:50:23;7.13;82.64
75786;DHT22;64402;44.708;37.644;2024-03-23T02:52:49;7.07;82.91
75786;DHT22;64402;44.708;37.644;2024-03-23T02:55:16;7.08;83.06
75786;DHT22;64402;44.708;37.644;2024-03-23T02:57:42;7.09;83.06
75786;DHT22;64402;44.708;37.644;2024-03-23T03:00:08;7.14;82.87
75786;DHT22;64402;44.708;37.644;2024-03-23T03:02:37;7.20;82.68
75786;DHT22;64402;44.708;37.644;2024-03-23T03:05:04;7.22;82.61
75786;DHT22;64402;44.708;37.644;2024-03-23T03:07:32;7.19;82.82
75786;DHT22;64402;44.708;37.644;2024-03-23T03:09:58;7.20;82.51
75786;DHT22;64402;44.708;37.644;2024-03-23T03:12:24;7.23;82.46
75786;DHT22;64402;44.708;37.644;2024-03-23T03:14:51;7.24;82.50
75786;DHT22;64402;44.708;37.644;2024-03-23T03:17:17;7.24;82.29
75786;DHT22;64402;44.708;37.644;2024-03-23T03:19:43;7.18;82.52
75786;DHT22;64402;44.708;37.644;2024-03-23T03:22:09;7.15;82.47
75786;DHT22;64402;44.708;37.644;2024-03-23T03:24:35;7.19;82.32
75786;DHT22;64402;44.708;37.644;2024-03-23T03:27:02;7.20;82.38
75786;DHT22;64402;44.708;37.644;2024-03-23T03:29:29;7.24;82.40
75786;DHT22;64402;44.708;37.644;2024-03-23T03:32:02;7.27;82.18
75786;DHT22;64402;44.708;37.644;2024-03-23T03:34:29;7.26;82.13
75786;DHT22;64402;44.708;37.644;2024-03-23T03:36:56;7.27;82.04
75786;DHT22;64402;44.708;37.644;2024-03-23T03:39:22;7.28;81.89
75786;DHT22;64402;44.708;37.644;2024-03-23T03:41:49;7.28;81.88
75786;DHT22;64402;44.708;37.644;2024-03-23T03:44:16;7.27;82.04
75786;DHT22;64402;44.708;37.644;2024-03-23T03:46:42;7.27;82.15
75786;DHT22;64402;44.708;37.644;2024-03-23T03:49:09;7.24;82.22
75786;DHT22;64402;44.708;37.644;2024-03-23T03:51:35;7.13;82.48
75786;DHT22;64402;44.708;37.644;2024-03-23T03:54:01;7.14;82.46
75786;DHT22;64402;44.708;37.644;2024-03-23T03:56:28;7.19;82.72
75786;DHT22;64402;44.708;37.644;2024-03-23T03:58:54;7.27;82.63
75786;DHT22;64402;44.708;37.644;2024-03-23T04:01:20;7.29;82.63
75786;DHT22;64402;44.708;37.644;2024-03-23T04:03:46;7.35;82.57
75786;DHT22;64402;44.708;37.644;2024-03-23T04:06:19;7.38;81.78
75786;DHT22;64402;44.708;37.644;2024-03-23T04:08:45;7.32;82.56
75786;DHT22;64402;44.708;37.644;2024-03-23T04:11:11;7.31;82.57
75786;DHT22;64402;44.708;37.644;2024-03-23T04:13:38;7.29;82.33
75786;DHT22;64402;44.708;37.644;2024-03-23T04:16:04;7.27;82.61
75786;DHT22;64402;44.708;37.644;2024-03-23T04:18:31;7.25;82.36
75786;DHT22;64402;44.708;37.644;2024-03-23T04:21:00;7.22;82.75
75786;DHT22;64402;44.708;37.644;2024-03-23T04:23:26;7.23;82.89
75786;DHT22;64402;44.708;37.644;2024-03-23T04:25:52;7.24;82.62
75786;DHT22;64402;44.708;37.644;2024-03-23T04:28:19;7.24;82.58
75786;DHT22;64402;44.708;37.644;2024-03-23T04:30:45;7.29;82.58
75786;DHT22;64402;44.708;37.644;2024-03-23T04:33:11;7.44;82.20
75786;DHT22;64402;44.708;37.644;2024-03-23T04:35:37;7.54;81.48
75786;DHT22;64402;44.708;37.644;2024-03-23T04:38:04;7.59;81.49
75786;DHT22;64402;44.708;37.644;2024-03-23T04:40:30;7.59;81.57
75786;DHT22;64402;44.708;37.644;2024-03-23T04:42:56;7.69;81.71
75786;DHT22;64402;44.708;37.644;2024-03-23T04:45:22;7.71;81.84
75786;DHT22;64402;44.708;37.644;2024-03-23T04:47:49;7.69;81.20
75786;DHT22;64402;44.708;37.644;2024-03-23T04:50:15;7.70;81.20
75786;DHT22;64402;44.708;37.644;2024-03-23T04:52:41;7.76;80.92
75786;DHT22;64402;44.708;37.644;2024-03-23T04:55:07;7.82;80.85
75786;DHT22;64402;44.708;37.644;2024-03-23T04:57:34;7.87;80.48
75786;DHT22;64402;44.708;37.644;2024-03-23T05:00:00;7.96;80.57
75786;DHT22;64402;44.708;37.644;2024-03-23T05:02:26;8.08;80.03
75786;DHT22;64402;44.708;37.644;2024-03-23T05:04:53;8.21;79.62
75786;DHT22;64402;44.708;37.644;2024-03-23T05:07:19;8.22;79.17
75786;DHT22;64402;44.708;37.644;2024-03-23T05:09:45;8.29;79.11
75786;DHT22;64402;44.708;37.644;2024-03-23T05:12:12;8.43;78.95
75786;DHT22;64402;44.708;37.644;2024-03-23T05:14:38;8.60;78.36
75786;DHT22;64402;44.708;37.644;2024-03-23T05:17:04;8.72;78.43
75786;DHT22;64402;44.708;37.644;2024-03-23T05:19:30;8.79;77.77
75786;DHT22;64402;44.708;37.644;2024-03-23T05:21:56;8.81;77.66
75786;DHT22;64402;44.708;37.644;2024-03-23T05:24:23;8.87;77.81
75786;DHT22;64402;44.708;37.644;2024-03-23T05:26:49;8.95;77.25
75786;DHT22;64402;44.708;37.644;2024-03-23T05:29:15;9.03;76.76
75786;DHT22;64402;44.708;37.644;2024-03-23T05:31:43;9.05;76.36
75786;DHT22;64402;44.708;37.644;2024-03-23T05:34:09;9.11;76.75
75786;DHT22;64402;44.708;37.644;2024-03-23T05:36:35;9.17;76.40
75786;DHT22;64402;44.708;37.644;2024-03-23T05:39:03;9.22;75.74
75786;DHT22;64402;44.708;37.644;2024-03-23T05:41:29;9.24;75.35
75786;DHT22;64402;44.708;37.644;2024-03-23T05:43:55;9.26;75.66
75786;DHT22;64402;44.708;37.644;2024-03-23T05:46:21;9.36;75.51
75786;DHT22;64402;44.708;37.644;2024-03-23T05:48:48;9.48;74.96
75786;DHT22;64402;44.708;37.644;2024-03-23T05:51:14;9.54;74.18
75786;DHT22;64402;44.708;37.644;2024-03-23T05:53:40;9.55;73.95
75786;DHT22;64402;44.708;37.644;2024-03-23T05:56:06;9.55;74.31
75786;DHT22;64402;44.708;37.644;2024-03-23T05:58:33;9.61;74.15
75786;DHT22;64402;44.708;37.644;2024-03-23T06:01:00;9.70;73.47
75786;DHT22;64402;44.708;37.644;2024-03-23T06:03:27;9.78;73.14
75786;DHT22;64402;44.708;37.644;2024-03-23T06:05:54;9.82;73.15
75786;DHT22;64402;44.708;37.644;2024-03-23T06:08:21;9.86;72.89
75786;DHT22;64402;44.708;37.644;2024-03-23T06:10:48;9.94;73.06
75786;DHT22;64402;44.708;37.644;2024-03-23T06:13:14;10.01;72.25
75786;DHT22;64402;44.708;37.644;2024-03-23T06:15:40;10.06;72.07
75786;DHT22;64402;44.708;37.644;2024-03-23T06:18:06;10.08;72.24
75786;DHT22;64402;44.708;37.644;2024-03-23T06:20:34;10.04;71.57
75786;DHT22;64402;44.708;37.644;2024-03-23T06:23:01;10.05;71.80
75786;DHT22;64402;44.708;37.644;2024-03-23T06:25:29;9.98;71.18
75786;DHT22;64402;44.708;37.644;2024-03-23T06:27:56;9.99;72.18
75786;DHT22;64402;44.708;37.644;2024-03-23T06:30:24;10.04;71.92
75786;DHT22;64402;44.708;37.644;2024-03-23T06:32:52;10.01;72.33
75786;DHT22;64402;44.708;37.644;2024-03-23T06:35:19;10.09;72.54
75786;DHT22;64402;44.708;37.644;2024-03-23T06:37:45;10.08;72.36
75786;DHT22;64402;44.708;37.644;2024-03-23T06:40:11;9.99;72.59
75786;DHT22;64402;44.708;37.644;2024-03-23T06:42:38;9.97;73.16
75786;DHT22;64402;44.708;37.644;2024-03-23T06:45:04;9.99;72.48
75786;DHT22;64402;44.708;37.644;2024-03-23T06:47:31;9.92;72.41
75786;DHT22;64402;44.708;37.644;2024-03-23T06:49:59;9.89;73.18
75786;DHT22;64402;44.708;37.644;2024-03-23T06:52:28;9.91;73.38
75786;DHT22;64402;44.708;37.644;2024-03-23T06:54:54;9.90;72.66
75786;DHT22;64402;44.708;37.644;2024-03-23T06:57:20;9.97;72.87
75786;DHT22;64402;44.708;37.644;2024-03-23T06:59:47;10.04;72.37
75786;DHT22;64402;44.708;37.644;2024-03-23T07:02:13;10.08;72.20
75786;DHT22;64402;44.708;37.644;2024-03-23T07:04:40;10.14;71.64
75786;DHT22;64402;44.708;37.644;2024-03-23T07:07:07;10.14;71.93
75786;DHT22;64402;44.708;37.644;2024-03-23T07:09:33;10.21;71.71
75786;DHT22;64402;44.708;37.644;2024-03-23T07:11:59;10.38;71.46
75786;DHT22;64402;44.708;37.644;2024-03-23T07:14:26;10.69;71.84
75786;DHT22;64402;44.708;37.644;2024-03-23T07:16:52;11.05;70.87
75786;DHT22;64402;44.708;37.644;2024-03-23T07:19:18;11.46;69.23
75786;DHT22;64402;44.708;37.644;2024-03-23T07:21:45;11.90;67.98
75786;DHT22;64402;44.708;37.644;2024-03-23T07:24:11;12.40;67.27
75786;DHT22;64402;44.708;37.644;2024-03-23T07:26:38;12.73;65.58
75786;DHT22;64402;44.708;37.644;2024-03-23T07:29:05;13.04;64.02
75786;DHT22;64402;44.708;37.644;2024-03-23T07:31:31;13.38;63.63
75786;DHT22;64402;44.708;37.644;2024-03-23T07:33:57;13.69;63.10
75786;DHT22;64402;44.708;37.644;2024-03-23T07:36:23;14.11;61.70
75786;DHT22;64402;44.708;37.644;2024-03-23T07:38:50;14.59;60.64
75786;DHT22;64402;44.708;37.644;2024-03-23T07:41:18;15.33;59.03
75786;DHT22;64402;44.708;37.644;2024-03-23T07:43:45;16.27;57.07
75786;DHT22;64402;44.708;37.644;2024-03-23T07:46:12;17.09;54.62
75786;DHT22;64402;44.708;37.644;2024-03-23T07:48:39;17.50;53.61
75786;DHT22;64402;44.708;37.644;2024-03-23T07:51:17;17.67;50.87
75786;DHT22;64402;44.708;37.644;2024-03-23T07:53:44;17.67;52.15
75786;DHT22;64402;44.708;37.644;2024-03-23T07:56:12;17.53;51.59
75786;DHT22;64402;44.708;37.644;2024-03-23T07:58:41;17.19;51.94
75786;DHT22;64402;44.708;37.644;2024-03-23T08:01:11;17.22;51.68
75786;DHT22;64402;44.708;37.644;2024-03-23T08:03:39;17.30;51.48
75786;DHT22;64402;44.708;37.644;2024-03-23T08:06:17;17.11;51.09
75786;DHT22;64402;44.708;37.644;2024-03-23T08:08:45;16.94;52.64
75786;DHT22;64402;44.708;37.644;2024-03-23T08:11:11;16.56;53.81
75786;DHT22;64402;44.708;37.644;2024-03-23T08:13:42;16.54;53.41
75786;DHT22;64402;44.708;37.644;2024-03-23T08:16:08;16.30;53.56
75786;DHT22;64402;44.708;37.644;2024-03-23T08:18:34;15.99;54.56
75786;DHT22;64402;44.708;37.644;2024-03-23T08:21:05;15.82;55.33
75786;DHT22;64402;44.708;37.644;2024-03-23T08:23:33;15.48;55.42
75786;DHT22;64402;44.708;37.644;2024-03-23T08:26:12;15.31;55.16
75786;DHT22;64402;44.708;37.644;2024-03-23T08:28:39;15.17;55.83
75786;DHT22;64402;44.708;37.644;2024-03-23T08:31:07;15.04;56.32
75786;DHT22;64402;44.708;37.644;2024-03-23T08:33:35;15.01;55.90
75786;DHT22;64402;44.708;37.644;2024-03-23T08:36:03;15.06;56.32
75786;DHT22;64402;44.708;37.644;2024-03-23T08:38:30;15.17;56.55
75786;DHT22;64402;44.708;37.644;2024-03-23T08:41:07;15.30;55.62
75786;DHT22;64402;44.708;37.644;2024-03-23T08:43:36;15.22;54.65
75786;DHT22;64402;44.708;37.644;2024-03-23T08:46:12;15.12;55.89
75786;DHT22;64402;44.708;37.644;2024-03-23T08:48:43;15.04;54.94
75786;DHT22;64402;44.708;37.644;2024-03-23T08:51:13;15.10;55.80
75786;DHT22;64402;44.708;37.644;2024-03-23T08:53:40;15.67;54.84
75786;DHT22;64402;44.708;37.644;2024-03-23T08:56:07;16.52;52.72
75786;DHT22;64402;44.708;37.644;2024-03-23T08:58:34;17.00;51.45
75786;DHT22;64402;44.708;37.644;2024-03-23T09:01:08;16.91;50.15
75786;DHT22;64402;44.708;37.644;2024-03-23T09:03:35;16.94;49.79
75786;DHT22;64402;44.708;37.644;2024-03-23T09:06:12;17.14;46.08
75786;DHT22;64402;44.708;37.644;2024-03-23T09:08:39;17.13;49.61
75786;DHT22;64402;44.708;37.644;2024-03-23T09:11:07;17.63;45.90
75786;DHT22;64402;44.708;37.644;2024-03-23T09:13:33;18.23;43.67
75786;DHT22;64402;44.708;37.644;2024-03-23T09:15:59;19.06;45.45
75786;DHT22;64402;44.708;37.644;2024-03-23T09:18:26;19.12;44.77
75786;DHT22;64402;44.708;37.644;2024-03-23T09:20:52;19.80;45.12
75786;DHT22;64402;44.708;37.644;2024-03-23T09:23:23;21.67;39.44
75786;DHT22;64402;44.708;37.644;2024-03-23T09:25:49;21.96;38.64
75786;DHT22;64402;44.708;37.644;2024-03-23T09:28:15;21.91;36.72
75786;DHT22;64402;44.708;37.644;2024-03-23T09:30:41;21.29;34.34
75786;DHT22;64402;44.708;37.644;2024-03-23T09:33:11;21.98;33.16
75786;DHT22;64402;44.708;37.644;2024-03-23T09:35:38;22.14;30.25
75786;DHT22;64402;44.708;37.644;2024-03-23T09:38:05;22.49;31.34
75786;DHT22;64402;44.708;37.644;2024-03-23T09:40:33;22.43;30.91
75786;DHT22;64402;44.708;37.644;2024-03-23T09:43:00;21.94;30.66
75786;DHT22;64402;44.708;37.644;2024-03-23T09:45:29;21.84;30.82
75786;DHT22;64402;44.708;37.644;2024-03-23T09:47:56;21.14;31.98
75786;DHT22;64402;44.708;37.644;2024-03-23T09:50:22;21.57;31.34
75786;DHT22;64402;44.708;37.644;2024-03-23T09:52:49;22.19;29.96
75786;DHT22;64402;44.708;37.644;2024-03-23T09:55:15;23.01;27.33
75786;DHT22;64402;44.708;37.644;2024-03-23T09:57:41;23.11;27.71
75786;DHT22;64402;44.708;37.644;2024-03-23T10:00:08;23.32;26.91
75786;DHT22;64402;44.708;37.644;2024-03-23T10:02:37;23.29;26.39
75786;DHT22;64402;44.708;37.644;2024-03-23T10:05:03;23.51;26.28
75786;DHT22;64402;44.708;37.644;2024-03-23T10:07:30;23.91;26.32
75786;DHT22;64402;44.708;37.644;2024-03-23T10:09:56;24.39;26.25
75786;DHT22;64402;44.708;37.644;2024-03-23T10:12:24;23.52;27.52
75786;DHT22;64402;44.708;37.644;2024-03-23T10:14:50;23.67;27.20
75786;DHT22;64402;44.708;37.644;2024-03-23T10:17:18;23.65;27.61
75786;DHT22;64402;44.708;37.644;2024-03-23T10:19:50;24.17;25.64
75786;DHT22;64402;44.708;37.644;2024-03-23T10:22:21;24.55;24.36
75786;DHT22;64402;44.708;37.644;2024-03-23T10:24:48;24.53;24.59
75786;DHT22;64402;44.708;37.644;2024-03-23T10:27:18;24.19;24.97
75786;DHT22;64402;44.708;37.644;2024-03-23T10:29:46;24.01;26.10
75786;DHT22;64402;44.708;37.644;2024-03-23T10:32:17;23.18;28.17
75786;DHT22;64402;44.708;37.644;2024-03-23T10:34:44;22.91;28.77
75786;DHT22;64402;44.708;37.644;2024-03-23T10:37:10;23.38;28.01
75786;DHT22;64402;44.708;37.644;2024-03-23T10:39:40;24.11;27.04
75786;DHT22;64402;44.708;37.644;2024-03-23T10:42:08;22.57;28.36
75786;DHT22;64402;44.708;37.644;2024-03-23T10:44:35;22.53;29.19
75786;DHT22;64402;44.708;37.644;2024-03-23T10:47:02;21.52;31.16
75786;DHT22;64402;44.708;37.644;2024-03-23T10:49:29;22.90;29.22
75786;DHT22;64402;44.708;37.644;2024-03-23T10:51:57;23.06;27.09
75786;DHT22;64402;44.708;37.644;2024-03-23T10:54:24;24.18;25.79
75786;DHT22;64402;44.708;37.644;2024-03-23T10:57:15;24.89;24.29
75786;DHT22;64402;44.708;37.644;2024-03-23T10:59:44;25.86;24.00
75786;DHT22;64402;44.708;37.644;2024-03-23T11:02:21;25.91;25.01
75786;DHT22;64402;44.708;37.644;2024-03-23T11:04:48;26.01;24.98
75786;DHT22;64402;44.708;37.644;2024-03-23T11:09:54;26.20;23.93
75786;DHT22;64402;44.708;37.644;2024-03-23T11:12:26;26.89;23.07
75786;DHT22;64402;44.708;37.644;2024-03-23T11:17:22;25.81;24.91
75786;DHT22;64402;44.708;37.644;2024-03-23T11:20:02;24.78;25.94
75786;DHT22;64402;44.708;37.644;2024-03-23T11:25:16;21.09;33.36
75786;DHT22;64402;44.708;37.644;2024-03-23T11:27:44;19.99;36.00
75786;DHT22;64402;44.708;37.644;2024-03-23T11:32:38;21.18;34.71
75786;DHT22;64402;44.708;37.644;2024-03-23T11:35:05;23.02;31.24
75786;DHT22;64402;44.708;37.644;2024-03-23T11:37:31;22.84;32.35
75786;DHT22;64402;44.708;37.644;2024-03-23T11:39:58;21.87;34.44
75786;DHT22;64402;44.708;37.644;2024-03-23T11:42:24;22.28;34.34
75786;DHT22;64402;44.708;37.644;2024-03-23T11:44:50;23.51;31.79
75786;DHT22;64402;44.708;37.644;2024-03-23T11:47:17;23.05;34.00
75786;DHT22;64402;44.708;37.644;2024-03-23T11:49:43;25.73;28.13
75786;DHT22;64402;44.708;37.644;2024-03-23T11:52:09;26.91;26.42
75786;DHT22;64402;44.708;37.644;2024-03-23T11:54:36;25.64;27.74
75786;DHT22;64402;44.708;37.644;2024-03-23T11:57:07;24.87;28.42
75786;DHT22;64402;44.708;37.644;2024-03-23T11:59:38;25.29;27.42
75786;DHT22;64402;44.708;37.644;2024-03-23T12:02:11;24.10;28.58
75786;DHT22;64402;44.708;37.644;2024-03-23T12:04:38;24.25;26.47
75786;DHT22;64402;44.708;37.644;2024-03-23T12:07:21;23.82;27.31
75786;DHT22;64402;44.708;37.644;2024-03-23T12:10:03;25.71;23.49
75786;DHT22;64402;44.708;37.644;2024-03-23T12:12:32;26.65;24.16
75786;DHT22;64402;44.708;37.644;2024-03-23T12:15:03;27.83;22.79
75786;DHT22;64402;44.708;37.644;2024-03-23T12:17:31;28.63;22.68
75786;DHT22;64402;44.708;37.644;2024-03-23T12:19:58;29.14;21.11
75786;DHT22;64402;44.708;37.644;2024-03-23T12:22:24;28.10;23.30
75786;DHT22;64402;44.708;37.644;2024-03-23T12:24:51;28.48;22.98
75786;DHT22;64402;44.708;37.644;2024-03-23T12:27:17;27.40;23.91
75786;DHT22;64402;44.708;37.644;2024-03-23T12:29:44;26.48;25.17
75786;DHT22;64402;44.708;37.644;2024-03-23T12:32:14;27.21;24.63
75786;DHT22;64402;44.708;37.644;2024-03-23T12:34:42;28.16;23.05
75786;DHT22;64402;44.708;37.644;2024-03-23T12:37:08;28.65;21.07
75786;DHT22;64402;44.708;37.644;2024-03-23T12:39:35;29.04;20.73
75786;DHT22;64402;44.708;37.644;2024-03-23T12:42:02;28.27;20.62
75786;DHT22;64402;44.708;37.644;2024-03-23T12:44:29;28.20;21.65
75786;DHT22;64402;44.708;37.644;2024-03-23T12:46:55;28.64;21.24
75786;DHT22;64402;44.708;37.644;2024-03-23T12:49:22;27.69;23.17
75786;DHT22;64402;44.708;37.644;2024-03-23T12:51:54;26.80;24.72
75786;DHT22;64402;44.708;37.644;2024-03-23T12:54:22;27.26;24.49
75786;DHT22;64402;44.708;37.644;2024-03-23T12:56:48;27.74;23.72
75786;DHT22;64402;44.708;37.644;2024-03-23T12:59:15;28.72;22.34
75786;DHT22;64402;44.708;37.644;2024-03-23T13:01:42;28.88;21.66
75786;DHT22;64402;44.708;37.644;2024-03-23T13:04:13;28.92;21.57
75786;DHT22;64402;44.708;37.644;2024-03-23T13:06:40;28.45;22.26
75786;DHT22;64402;44.708;37.644;2024-03-23T13:09:07;28.43;22.63
75786;DHT22;64402;44.708;37.644;2024-03-23T13:11:33;28.62;21.79
75786;DHT22;64402;44.708;37.644;2024-03-23T13:14:00;28.91;21.06
75786;DHT22;64402;44.708;37.644;2024-03-23T13:16:26;28.88;20.85
75786;DHT22;64402;44.708;37.644;2024-03-23T13:18:53;28.20;22.34
75786;DHT22;64402;44.708;37.644;2024-03-23T13:21:22;27.43;23.89
75786;DHT22;64402;44.708;37.644;2024-03-23T13:23:49;28.15;22.90
75786;DHT22;64402;44.708;37.644;2024-03-23T13:26:16;28.17;22.86
75786;DHT22;64402;44.708;37.644;2024-03-23T13:28:42;27.65;23.13
75786;DHT22;64402;44.708;37.644;2024-03-23T13:31:09;27.13;23.46
75786;DHT22;64402;44.708;37.644;2024-03-23T13:33:35;27.57;23.42
75786;DHT22;64402;44.708;37.644;2024-03-23T13:36:01;27.69;23.13
75786;DHT22;64402;44.708;37.644;2024-03-23T13:38:29;26.71;24.89
75786;DHT22;64402;44.708;37.644;2024-03-23T13:40:57;26.04;26.74
75786;DHT22;64402;44.708;37.644;2024-03-23T13:43:24;26.91;25.11
75786;DHT22;64402;44.708;37.644;2024-03-23T13:45:57;27.70;23.55
75786;DHT22;64402;44.708;37.644;2024-03-23T13:48:27;26.35;24.72
75786;DHT22;64402;44.708;37.644;2024-03-23T13:51:03;26.95;24.21
75786;DHT22;64402;44.708;37.644;2024-03-23T13:53:30;26.08;25.49
75786;DHT22;64402;44.708;37.644;2024-03-23T13:55:56;25.50;26.23
75786;DHT22;64402;44.708;37.644;2024-03-23T13:58:23;26.11;25.69
75786;DHT22;64402;44.708;37.644;2024-03-23T14:00:52;26.99;24.20
75786;DHT22;64402;44.708;37.644;2024-03-23T14:03:18;25.33;27.10
75786;DHT22;64402;44.708;37.644;2024-03-23T14:05:45;26.04;25.79
75786;DHT22;64402;44.708;37.644;2024-03-23T14:08:13;26.57;24.66
75786;DHT22;64402;44.708;37.644;2024-03-23T14:10:42;26.49;24.17
75786;DHT22;64402;44.708;37.644;2024-03-23T14:13:09;26.66;24.38
75786;DHT22;64402;44.708;37.644;2024-03-23T14:15:35;25.92;25.66
75786;DHT22;64402;44.708;37.644;2024-03-23T14:18:05;25.56;26.08
75786;DHT22;64402;44.708;37.644;2024-03-23T14:20:31;26.21;24.98
75786;DHT22;64402;44.708;37.644;2024-03-23T14:22:57;25.66;25.72
75786;DHT22;64402;44.708;37.644;2024-03-23T14:25:24;24.56;27.39
75786;DHT22;64402;44.708;37.644;2024-03-23T14:27:53;23.87;28.77
75786;DHT22;64402;44.708;37.644;2024-03-23T14:30:19;23.57;30.04
75786;DHT22;64402;44.708;37.644;2024-03-23T14:32:45;22.79;31.58
75786;DHT22;64402;44.708;37.644;2024-03-23T14:35:12;23.10;31.81
75786;DHT22;64402;44.708;37.644;2024-03-23T14:37:38;22.81;32.20
75786;DHT22;64402;44.708;37.644;2024-03-23T14:40:05;20.87;35.81
75786;DHT22;64402;44.708;37.644;2024-03-23T14:42:32;19.27;39.95
75786;DHT22;64402;44.708;37.644;2024-03-23T14:44:59;17.85;43.85
75786;DHT22;64402;44.708;37.644;2024-03-23T14:47:25;16.66;46.88
75786;DHT22;64402;44.708;37.644;2024-03-23T14:49:52;18.08;43.50
75786;DHT22;64402;44.708;37.644;2024-03-23T14:52:19;17.53;44.59
75786;DHT22;64402;44.708;37.644;2024-03-23T14:54:46;16.51;47.58
75786;DHT22;64402;44.708;37.644;2024-03-23T14:57:12;15.68;49.63
75786;DHT22;64402;44.708;37.644;2024-03-23T14:59:39;15.39;51.46
75786;DHT22;64402;44.708;37.644;2024-03-23T15:02:07;15.25;52.67
75786;DHT22;64402;44.708;37.644;2024-03-23T15:04:34;14.89;53.68
75786;DHT22;64402;44.708;37.644;2024-03-23T15:07:01;14.45;55.58
75786;DHT22;64402;44.708;37.644;2024-03-23T15:09:28;14.36;55.75
75786;DHT22;64402;44.708;37.644;2024-03-23T15:11:54;14.30;55.59
75786;DHT22;64402;44.708;37.644;2024-03-23T15:14:24;14.08;56.39
75786;DHT22;64402;44.708;37.644;2024-03-23T15:16:50;13.97;56.36
75786;DHT22;64402;44.708;37.644;2024-03-23T15:19:18;13.86;56.74
75786;DHT22;64402;44.708;37.644;2024-03-23T15:21:44;13.86;57.17
75786;DHT22;64402;44.708;37.644;2024-03-23T15:24:11;13.78;57.93
75786;DHT22;64402;44.708;37.644;2024-03-23T15:26:38;13.64;58.70
75786;DHT22;64402;44.708;37.644;2024-03-23T15:29:04;13.64;58.96
75786;DHT22;64402;44.708;37.644;2024-03-23T15:31:38;13.50;59.59
75786;DHT22;64402;44.708;37.644;2024-03-23T15:34:04;13.31;59.96
75786;DHT22;64402;44.708;37.644;2024-03-23T15:36:31;13.12;60.51
75786;DHT22;64402;44.708;37.644;2024-03-23T15:38:57;13.06;60.46
75786;DHT22;64402;44.708;37.644;2024-03-23T15:41:24;12.79;61.35
75786;DHT22;64402;44.708;37.644;2024-03-23T15:43:51;12.86;61.06
75786;DHT22;64402;44.708;37.644;2024-03-23T15:46:17;12.79;60.35
75786;DHT22;64402;44.708;37.644;2024-03-23T15:48:45;12.80;60.64
75786;DHT22;64402;44.708;37.644;2024-03-23T15:51:12;12.90;59.72
75786;DHT22;64402;44.708;37.644;2024-03-23T15:53:39;12.92;59.32
75786;DHT22;64402;44.708;37.644;2024-03-23T15:56:06;12.91;59.07
75786;DHT22;64402;44.708;37.644;2024-03-23T15:58:33;12.90;58.89
75786;DHT22;64402;44.708;37.644;2024-03-23T16:01:04;12.82;59.21
75786;DHT22;64402;44.708;37.644;2024-03-23T16:03:32;12.81;58.83
75786;DHT22;64402;44.708;37.644;2024-03-23T16:06:03;12.74;59.08
75786;DHT22;64402;44.708;37.644;2024-03-23T16:08:31;12.70;59.15
75786;DHT22;64402;44.708;37.644;2024-03-23T16:11:01;12.61;59.54
75786;DHT22;64402;44.708;37.644;2024-03-23T16:13:28;12.46;60.07
75786;DHT22;64402;44.708;37.644;2024-03-23T16:15:58;12.41;60.28
75786;DHT22;64402;44.708;37.644;2024-03-23T16:18:25;12.27;60.18
75786;DHT22;64402;44.708;37.644;2024-03-23T16:20:59;12.14;60.93
75786;DHT22;64402;44.708;37.644;2024-03-23T16:23:26;12.03;61.13
75786;DHT22;64402;44.708;37.644;2024-03-23T16:25:54;11.85;62.09